Time;durP1;ratioP1;P1;durP2;ratioP2;P2;SDS_P1;SDS_P2;PMS_P1;PMS_P2;Temp;Humidity;BMP_temperature;BMP_pressure;BME280_temperature;BME280_humidity;BME280_pressure;Samples;Min_cycle;Max_cycle;Signal;HPM_P1;HPM_P2
2021/01/12 00:02:22;;;;;;;23.35;13.50;;;6.90;95.50;;;;;;4990021;28;20093;-52
2021/01/12 00:04:48;;;;;;;20.40;11.48;;;7.00;95.60;;;;;;4982770;28;20042;-51
2021/01/12 00:07:18;;;;;;;23.48;12.25;;;6.90;95.60;;;;;;4990359;28;20038;-53
2021/01/12 00:09:44;;;;;;;22.58;12.85;;;7.00;95.40;;;;;;4982298;28;20043;-52
2021/01/12 00:12:10;;;;;;;18.77;11.27;;;6.90;95.50;;;;;;4982871;28;20050;-54
2021/01/12 00:14:36;;;;;;;21.20;11.93;;;7.00;95.50;;;;;;4976448;28;20045;-52
2021/01/12 00:17:06;;;;;;;22.60;11.63;;;6.90;95.50;;;;;;4989407;28;20042;-51
2021/01/12 00:19:33;;;;;;;22.30;10.25;;;7.00;95.60;;;;;;4983201;28;20046;-53
2021/01/12 00:22:00;;;;;;;20.02;11.93;;;7.00;95.70;;;;;;4980286;28;20530;-51
2021/01/12 00:24:25;;;;;;;21.80;12.00;;;7.10;95.60;;;;;;4984895;28;20050;-54
2021/01/12 00:26:52;;;;;;;16.33;9.27;;;7.00;95.60;;;;;;4977876;28;20046;-54
2021/01/12 00:29:19;;;;;;;22.40;11.75;;;7.00;95.60;;;;;;4976266;28;20047;-55
2021/01/12 00:31:46;;;;;;;14.85;9.95;;;7.10;95.50;;;;;;4973736;28;20065;-55
2021/01/12 00:34:12;;;;;;;20.48;11.70;;;7.00;95.60;;;;;;4974535;28;20051;-53
2021/01/12 00:36:43;;;;;;;18.80;11.57;;;7.00;95.60;;;;;;4984623;28;20046;-53
2021/01/12 00:39:08;;;;;;;20.23;11.27;;;7.00;95.70;;;;;;4990291;28;20054;-52
2021/01/12 00:41:35;;;;;;;21.60;10.00;;;7.10;95.60;;;;;;4982187;28;20050;-54
2021/01/12 00:44:03;;;;;;;19.80;12.93;;;7.10;95.80;;;;;;4989630;28;20046;-55
2021/01/12 00:46:29;;;;;;;19.13;10.70;;;7.10;95.60;;;;;;4989998;28;20034;-51
2021/01/12 00:48:55;;;;;;;17.42;10.00;;;7.10;95.60;;;;;;4990338;28;20108;-53
2021/01/12 00:51:20;;;;;;;17.05;10.52;;;7.00;95.60;;;;;;4980014;28;20101;-50
2021/01/12 00:53:49;;;;;;;19.38;11.40;;;7.00;95.60;;;;;;4986901;28;20038;-50
2021/01/12 00:56:15;;;;;;;15.05;10.45;;;7.10;95.60;;;;;;4977208;28;20518;-50
2021/01/12 00:58:40;;;;;;;17.98;9.43;;;7.10;95.60;;;;;;4981727;28;20500;-56
2021/01/12 01:01:06;;;;;;;19.20;10.90;;;7.10;95.70;;;;;;4987474;28;20038;-52
2021/01/12 01:03:32;;;;;;;18.75;10.70;;;7.10;95.70;;;;;;4974860;28;20500;-55
2021/01/12 01:05:58;;;;;;;17.88;10.63;;;7.10;95.90;;;;;;4987820;28;20054;-53
2021/01/12 01:08:24;;;;;;;18.23;10.25;;;7.10;95.50;;;;;;4988930;28;20401;-53
2021/01/12 01:10:49;;;;;;;16.73;10.05;;;7.10;95.60;;;;;;4990685;28;20462;-50
2021/01/12 01:13:15;;;;;;;16.42;10.13;;;7.20;95.70;;;;;;4983710;28;20042;-54
2021/01/12 01:15:41;;;;;;;17.35;10.43;;;7.20;95.50;;;;;;4989111;28;20406;-54
2021/01/12 01:18:07;;;;;;;15.15;10.38;;;7.20;95.60;;;;;;4991472;28;20053;-55
2021/01/12 01:20:32;;;;;;;20.23;11.32;;;7.20;95.70;;;;;;4988721;28;20054;-55
2021/01/12 01:22:58;;;;;;;15.93;10.05;;;7.10;95.60;;;;;;4992176;28;20053;-54
2021/01/12 01:25:23;;;;;;;18.42;8.93;;;7.20;95.70;;;;;;4984796;28;20053;-56
2021/01/12 01:27:49;;;;;;;17.83;10.65;;;7.20;95.60;;;;;;4975871;28;20038;-57
2021/01/12 01:30:15;;;;;;;22.63;10.27;;;7.20;95.50;;;;;;4983493;28;20038;-56
2021/01/12 01:32:40;;;;;;;17.42;10.80;;;7.10;95.60;;;;;;4983516;28;20046;-57
2021/01/12 01:35:07;;;;;;;15.68;9.13;;;7.10;95.70;;;;;;4980740;28;20043;-54
2021/01/12 01:37:35;;;;;;;12.38;8.40;;;7.10;95.70;;;;;;4964821;28;20051;-55
2021/01/12 01:40:03;;;;;;;15.15;9.90;;;7.10;95.80;;;;;;4986216;28;20045;-54
2021/01/12 01:42:35;;;;;;;18.45;10.63;;;7.10;95.70;;;;;;4975478;28;20042;-54
2021/01/12 01:45:04;;;;;;;17.05;9.50;;;7.10;95.70;;;;;;4977685;28;20132;-56
2021/01/12 01:47:30;;;;;;;20.20;10.05;;;7.10;95.80;;;;;;4983184;28;20034;-54
2021/01/12 01:49:55;;;;;;;15.70;9.70;;;7.10;95.80;;;;;;4989933;28;20454;-54
2021/01/12 01:52:25;;;;;;;15.73;9.57;;;7.10;95.80;;;;;;4981631;28;20043;-56
2021/01/12 01:54:54;;;;;;;19.73;10.13;;;7.20;95.70;;;;;;4975531;28;20074;-54
2021/01/12 01:57:19;;;;;;;16.15;10.13;;;7.20;95.80;;;;;;4991795;28;20399;-57
2021/01/12 01:59:45;;;;;;;15.55;9.30;;;7.20;95.70;;;;;;4974430;28;20503;-57
2021/01/12 02:02:11;;;;;;;13.63;8.55;;;7.10;95.80;;;;;;4991122;28;20411;-53
2021/01/12 02:04:39;;;;;;;17.40;9.60;;;7.20;95.80;;;;;;4992298;28;20058;-55
2021/01/12 02:07:07;;;;;;;15.73;9.65;;;7.20;95.70;;;;;;4970157;28;20042;-54
2021/01/12 02:09:38;;;;;;;18.60;9.77;;;7.20;95.70;;;;;;4989011;28;20042;-54
2021/01/12 02:12:10;;;;;;;13.63;8.45;;;7.20;95.70;;;;;;4983733;28;20073;-54
2021/01/12 02:14:40;;;;;;;13.70;8.07;;;7.20;95.70;;;;;;4978450;28;20054;-55
2021/01/12 02:17:10;;;;;;;11.70;8.23;;;7.20;95.80;;;;;;4985640;28;20046;-55
2021/01/12 02:19:38;;;;;;;11.82;8.00;;;7.30;95.60;;;;;;4974118;28;20062;-56
2021/01/12 02:22:06;;;;;;;11.38;8.00;;;7.30;95.70;;;;;;4992834;28;20046;-55
2021/01/12 02:24:36;;;;;;;15.57;8.52;;;7.30;95.70;;;;;;4990047;28;20046;-55
2021/01/12 02:27:06;;;;;;;13.73;7.78;;;7.30;95.70;;;;;;4984582;28;20039;-56
2021/01/12 02:29:32;;;;;;;13.27;7.75;;;7.30;95.60;;;;;;4971675;28;20074;-55
2021/01/12 02:31:57;;;;;;;13.18;7.90;;;7.20;95.90;;;;;;4992146;28;20062;-56
2021/01/12 02:34:26;;;;;;;13.27;7.80;;;7.20;95.70;;;;;;4986053;28;20164;-56
2021/01/12 02:36:53;;;;;;;10.60;7.63;;;7.20;95.70;;;;;;4990780;28;20046;-56
2021/01/12 02:39:19;;;;;;;11.38;8.45;;;7.20;95.70;;;;;;4990551;28;20041;-55
2021/01/12 02:41:45;;;;;;;10.02;6.97;;;7.20;95.70;;;;;;4984108;28;20109;-56
2021/01/12 02:44:31;;;;;;;11.80;7.22;;;7.20;95.80;;;;;;4990791;28;20042;-56
2021/01/12 02:46:57;;;;;;;11.80;7.93;;;7.20;95.80;;;;;;4988181;28;20405;-55
2021/01/12 02:49:23;;;;;;;11.38;7.60;;;7.20;95.80;;;;;;4973271;28;20039;-56
2021/01/12 02:51:49;;;;;;;10.90;7.50;;;7.20;95.80;;;;;;4974262;28;20031;-54
2021/01/12 02:54:14;;;;;;;12.15;7.03;;;7.30;95.80;;;;;;4979560;28;20070;-55
2021/01/12 02:56:40;;;;;;;8.95;6.32;;;7.30;95.80;;;;;;4973117;28;20129;-55
2021/01/12 02:59:05;;;;;;;9.98;6.50;;;7.30;95.70;;;;;;4977767;28;20047;-55
2021/01/12 03:01:31;;;;;;;9.25;6.72;;;7.30;95.60;;;;;;4981139;28;20070;-56
2021/01/12 03:03:57;;;;;;;9.95;7.07;;;7.30;95.70;;;;;;4979976;28;20566;-55
2021/01/12 03:06:23;;;;;;;10.68;7.22;;;7.30;95.60;;;;;;4985456;28;20048;-56
2021/01/12 03:08:49;;;;;;;9.75;6.75;;;7.30;95.60;;;;;;4980184;28;20050;-56
2021/01/12 03:11:14;;;;;;;10.55;7.47;;;7.30;95.50;;;;;;4985821;28;20045;-55
2021/01/12 03:13:40;;;;;;;12.07;7.53;;;7.30;95.60;;;;;;4973030;28;20043;-54
2021/01/12 03:16:05;;;;;;;10.32;6.78;;;7.30;95.60;;;;;;4991734;28;20464;-53
2021/01/12 03:18:31;;;;;;;8.88;6.07;;;7.30;95.50;;;;;;4990129;28;20050;-53
2021/01/12 03:20:58;;;;;;;10.07;6.60;;;7.40;95.80;;;;;;4987274;28;20053;-54
2021/01/12 03:23:24;;;;;;;8.48;6.38;;;7.40;95.50;;;;;;4981957;28;20062;-54
2021/01/12 03:25:49;;;;;;;10.73;6.72;;;7.40;95.50;;;;;;4986438;28;20046;-54
2021/01/12 03:28:15;;;;;;;6.75;4.88;;;7.40;95.60;;;;;;4989902;28;20130;-56
2021/01/12 03:30:41;;;;;;;10.57;4.97;;;7.40;95.50;;;;;;4987194;28;20038;-54
2021/01/12 03:33:06;;;;;;;4.18;2.78;;;7.40;95.50;;;;;;4990709;28;20465;-54
2021/01/12 03:35:32;;;;;;;8.30;3.70;;;7.50;95.20;;;;;;4988877;28;20383;-54
2021/01/12 03:37:57;;;;;;;6.32;3.15;;;7.50;95.00;;;;;;4979883;28;20066;-56
2021/01/12 03:40:23;;;;;;;6.03;2.78;;;7.50;95.10;;;;;;4976018;28;20043;-53
2021/01/12 03:42:49;;;;;;;6.38;2.83;;;7.50;95.00;;;;;;4979349;28;20522;-54
2021/01/12 03:45:15;;;;;;;5.55;2.67;;;7.50;95.00;;;;;;4990952;28;20054;-54
2021/01/12 03:47:41;;;;;;;2.90;1.90;;;7.50;95.00;;;;;;4981583;28;20038;-53
2021/01/12 03:50:08;;;;;;;3.85;2.30;;;7.50;94.70;;;;;;4991878;28;20529;-53
2021/01/12 03:52:34;;;;;;;3.58;1.60;;;7.50;94.80;;;;;;4987794;28;20034;-55
2021/01/12 03:55:00;;;;;;;2.70;1.30;;;7.40;94.80;;;;;;4979909;28;20054;-54
2021/01/12 03:57:25;;;;;;;1.40;1.17;;;7.40;94.80;;;;;;4978307;28;20046;-57
2021/01/12 03:59:51;;;;;;;2.65;1.23;;;7.30;94.70;;;;;;4971771;28;20047;-54
2021/01/12 04:02:16;;;;;;;2.35;1.08;;;7.30;94.70;;;;;;4973629;28;20093;-52
2021/01/12 04:04:44;;;;;;;3.13;1.15;;;7.30;94.70;;;;;;4972846;28;20043;-56
2021/01/12 04:07:11;;;;;;;1.85;1.30;;;7.30;94.70;;;;;;4979301;28;20098;-52
2021/01/12 04:09:38;;;;;;;2.10;1.40;;;7.30;94.70;;;;;;4969863;28;20513;-53
2021/01/12 04:12:04;;;;;;;3.38;1.20;;;7.30;94.80;;;;;;4977885;28;20574;-55
2021/01/12 04:14:30;;;;;;;3.60;1.40;;;7.30;94.80;;;;;;4972301;28;20058;-54
2021/01/12 04:16:55;;;;;;;2.85;1.42;;;7.20;94.80;;;;;;4977643;28;20054;-54
2021/01/12 04:19:21;;;;;;;3.50;1.70;;;7.20;94.90;;;;;;4976701;28;20117;-54
2021/01/12 04:21:46;;;;;;;5.20;1.85;;;7.20;94.90;;;;;;4984904;28;20034;-54
2021/01/12 04:24:12;;;;;;;7.88;2.05;;;7.20;94.90;;;;;;4980974;28;20038;-53
2021/01/12 04:26:38;;;;;;;3.60;1.77;;;7.20;95.00;;;;;;4981874;28;20050;-54
2021/01/12 04:29:04;;;;;;;4.88;2.22;;;7.20;95.10;;;;;;4972306;28;20038;-54
2021/01/12 04:31:30;;;;;;;6.18;2.20;;;7.20;95.10;;;;;;4975779;28;20077;-55
2021/01/12 04:33:55;;;;;;;7.10;2.65;;;7.20;95.10;;;;;;4972707;28;20039;-52
2021/01/12 04:36:21;;;;;;;6.53;2.53;;;7.20;95.20;;;;;;4973975;28;20563;-54
2021/01/12 04:38:46;;;;;;;6.03;3.00;;;7.20;95.30;;;;;;4974913;28;20027;-56
2021/01/12 04:41:14;;;;;;;10.20;3.50;;;7.20;95.30;;;;;;4981925;28;20042;-54
2021/01/12 04:43:39;;;;;;;7.97;3.20;;;7.20;95.30;;;;;;4978568;28;20133;-53
2021/01/12 04:46:06;;;;;;;10.60;3.35;;;7.20;95.30;;;;;;4982235;28;20165;-54
2021/01/12 04:48:32;;;;;;;7.93;3.55;;;7.30;95.40;;;;;;4947958;28;20066;-54
2021/01/12 04:51:07;;;;;;;8.65;3.10;;;7.30;95.40;;;;;;4975334;28;20044;-53
2021/01/12 04:53:40;;;;;;;8.48;3.90;;;7.30;95.50;;;;;;4977715;28;20125;-51
2021/01/12 04:56:06;;;;;;;7.10;3.67;;;7.30;95.40;;;;;;4974942;28;20046;-55
2021/01/12 04:58:40;;;;;;;14.05;4.10;;;7.30;95.50;;;;;;4975743;28;20043;-54
2021/01/12 05:01:13;;;;;;;9.32;3.50;;;7.30;95.40;;;;;;4975229;28;20039;-55
2021/01/12 05:03:43;;;;;;;12.00;4.30;;;7.40;95.40;;;;;;4974924;28;20086;-53
2021/01/12 05:06:10;;;;;;;15.25;3.45;;;7.40;95.50;;;;;;4974686;28;20419;-56
2021/01/12 05:08:41;;;;;;;10.73;3.15;;;7.30;95.50;;;;;;4975329;28;20046;-53
2021/01/12 05:11:07;;;;;;;16.08;3.38;;;7.40;95.40;;;;;;4974909;28;20066;-53
2021/01/12 05:13:34;;;;;;;11.43;3.67;;;7.40;95.30;;;;;;4974459;28;20090;-54
2021/01/12 05:16:08;;;;;;;14.52;3.30;;;7.40;95.40;;;;;;4988266;28;20073;-55
2021/01/12 05:18:39;;;;;;;13.10;3.00;;;7.40;95.40;;;;;;4974625;28;20138;-56
2021/01/12 05:21:06;;;;;;;18.13;3.95;;;7.40;95.40;;;;;;4977750;28;20078;-54
2021/01/12 05:23:48;;;;;;;14.65;3.40;;;7.40;95.40;;;;;;4977378;28;20454;-54
2021/01/12 05:26:17;;;;;;;8.68;3.47;;;7.40;95.70;;;;;;4979458;28;20042;-54
2021/01/12 05:28:43;;;;;;;12.40;3.33;;;7.40;95.50;;;;;;4993218;28;20049;-54
2021/01/12 05:31:12;;;;;;;8.93;3.10;;;7.40;95.50;;;;;;4983134;28;20101;-54
2021/01/12 05:33:42;;;;;;;11.23;3.50;;;7.40;95.40;;;;;;4988062;28;20038;-54
2021/01/12 05:36:09;;;;;;;11.27;3.67;;;7.40;95.50;;;;;;4965984;28;20406;-54
2021/01/12 05:38:35;;;;;;;10.68;3.15;;;7.40;95.40;;;;;;4991108;28;20035;-52
2021/01/12 05:41:03;;;;;;;12.98;3.28;;;7.40;95.50;;;;;;4993303;28;20042;-54
2021/01/12 05:43:37;;;;;;;11.02;3.47;;;7.40;95.50;;;;;;4992229;28;20130;-55
2021/01/12 05:46:08;;;;;;;12.88;3.58;;;7.40;95.50;;;;;;4993377;28;20125;-53
2021/01/12 05:48:36;;;;;;;10.77;3.10;;;7.40;95.50;;;;;;4980926;28;20054;-58
2021/01/12 05:51:06;;;;;;;13.55;3.92;;;7.40;95.50;;;;;;4980158;28;20041;-55
2021/01/12 05:53:46;;;;;;;7.07;3.65;;;7.40;95.50;;;;;;4990443;28;20064;-55
2021/01/12 05:56:15;;;;;;;7.32;3.72;;;7.50;95.50;;;;;;4975804;28;20052;-55
2021/01/12 05:58:51;;;;;;;8.93;3.30;;;7.50;95.40;;;;;;4991325;28;20125;-53
2021/01/12 06:01:34;;;;;;;14.35;3.70;;;7.50;95.40;;;;;;4993148;28;20038;-55
2021/01/12 06:04:06;;;;;;;11.52;3.30;;;7.50;95.40;;;;;;4986961;28;20129;-55
2021/01/12 06:06:32;;;;;;;9.80;3.25;;;7.50;95.30;;;;;;4988434;28;20093;-55
2021/01/12 06:08:59;;;;;;;8.77;2.88;;;7.50;95.30;;;;;;4981737;28;20569;-51
2021/01/12 06:11:27;;;;;;;8.07;3.03;;;7.50;95.30;;;;;;4987176;28;20521;-51
2021/01/12 06:14:05;;;;;;;10.15;3.45;;;7.50;95.20;;;;;;4963378;28;20046;-52
2021/01/12 06:16:34;;;;;;;12.90;3.22;;;7.50;95.20;;;;;;4990242;28;20101;-55
2021/01/12 06:19:07;;;;;;;12.23;3.30;;;7.50;95.20;;;;;;4973252;28;20038;-52
2021/01/12 06:21:35;;;;;;;7.60;3.13;;;7.50;95.20;;;;;;4989650;28;20350;-53
2021/01/12 06:24:08;;;;;;;8.95;3.42;;;7.50;95.20;;;;;;4991920;28;20499;-51
2021/01/12 06:26:35;;;;;;;11.52;3.40;;;7.50;95.20;;;;;;4978153;28;20652;-53
2021/01/12 06:29:01;;;;;;;12.32;3.33;;;7.50;95.20;;;;;;4986107;28;20557;-50
2021/01/12 06:31:26;;;;;;;8.95;3.38;;;7.50;95.20;;;;;;4986385;28;20042;-53
2021/01/12 06:33:56;;;;;;;10.85;3.60;;;7.40;95.20;;;;;;4982153;28;20042;-53
2021/01/12 06:36:25;;;;;;;10.48;3.50;;;7.40;95.30;;;;;;4973175;28;20055;-54
2021/01/12 06:38:51;;;;;;;10.40;3.25;;;7.40;95.20;;;;;;4973060;28;20065;-54
2021/01/12 06:41:21;;;;;;;4.97;1.42;;;7.50;95.20;;;;;;4977989;28;20066;-55
2021/01/12 06:43:50;;;;;;;7.17;1.60;;;7.30;93.90;;;;;;4988150;28;20442;-56
2021/01/12 06:46:17;;;;;;;6.90;1.98;;;7.20;93.70;;;;;;4981081;28;20557;-55
2021/01/12 06:48:44;;;;;;;7.45;2.10;;;7.10;93.50;;;;;;4983957;28;20074;-56
2021/01/12 06:51:12;;;;;;;5.22;1.60;;;7.10;93.20;;;;;;4960647;28;20477;-53
2021/01/12 06:53:47;;;;;;;6.30;1.20;;;6.90;93.40;;;;;;4990015;28;20421;-52
2021/01/12 06:56:12;;;;;;;4.80;1.00;;;6.80;93.50;;;;;;4988543;28;20061;-52
2021/01/12 06:58:45;;;;;;;5.45;1.20;;;6.70;93.60;;;;;;4991850;28;20526;-55
2021/01/12 07:01:20;;;;;;;6.38;1.17;;;6.70;93.30;;;;;;4982223;28;20514;-55
2021/01/12 07:03:49;;;;;;;2.55;1.17;;;6.60;93.70;;;;;;4984233;28;20116;-55
2021/01/12 07:06:25;;;;;;;4.13;1.15;;;6.50;93.80;;;;;;4978935;28;20117;-55
2021/01/12 07:08:53;;;;;;;5.10;1.30;;;6.50;93.90;;;;;;4990338;28;20120;-56
2021/01/12 07:11:21;;;;;;;5.78;0.98;;;6.50;94.00;;;;;;4976298;28;20518;-56
2021/01/12 07:13:46;;;;;;;4.55;1.10;;;6.50;94.20;;;;;;4990264;28;20582;-54
2021/01/12 07:16:14;;;;;;;7.68;1.38;;;6.40;94.20;;;;;;4980530;28;20077;-55
2021/01/12 07:18:42;;;;;;;6.50;1.10;;;6.40;94.20;;;;;;4980393;28;20153;-55
2021/01/12 07:21:13;;;;;;;6.28;1.10;;;6.40;94.20;;;;;;4980967;28;20424;-55
2021/01/12 07:23:40;;;;;;;10.52;1.30;;;6.30;94.20;;;;;;4986152;28;20038;-55
2021/01/12 07:26:07;;;;;;;5.78;1.10;;;6.30;94.30;;;;;;4986245;28;20061;-54
2021/01/12 07:28:33;;;;;;;5.38;1.20;;;6.30;94.40;;;;;;4986452;28;20128;-55
2021/01/12 07:30:59;;;;;;;6.80;1.17;;;6.30;94.40;;;;;;4986148;28;20042;-52
2021/01/12 07:33:30;;;;;;;6.13;1.10;;;6.30;94.50;;;;;;4986404;28;20053;-55
2021/01/12 07:35:58;;;;;;;7.45;1.20;;;6.30;94.70;;;;;;4987568;28;20495;-52
2021/01/12 07:38:25;;;;;;;6.40;1.30;;;6.30;94.50;;;;;;4987365;28;20043;-55
2021/01/12 07:40:52;;;;;;;7.05;1.38;;;6.20;94.50;;;;;;4987863;28;20447;-55
2021/01/12 07:43:20;;;;;;;7.90;1.40;;;6.20;94.50;;;;;;4985445;28;20042;-56
2021/01/12 07:45:47;;;;;;;8.77;1.30;;;6.20;94.50;;;;;;4986405;28;20042;-55
2021/01/12 07:48:14;;;;;;;6.85;1.27;;;6.20;94.60;;;;;;4973136;28;20134;-55
2021/01/12 07:50:45;;;;;;;8.93;1.80;;;6.20;94.70;;;;;;4985387;28;20043;-56
2021/01/12 07:53:12;;;;;;;7.45;1.42;;;6.20;94.70;;;;;;4969400;28;20410;-55
2021/01/12 07:55:46;;;;;;;10.82;1.70;;;6.20;94.70;;;;;;4983854;28;20076;-55
2021/01/12 07:58:13;;;;;;;8.32;2.75;;;6.20;94.70;;;;;;4988778;28;20110;-55
2021/01/12 08:00:43;;;;;;;8.35;1.67;;;6.20;94.60;;;;;;4988056;28;20045;-55
2021/01/12 08:03:08;;;;;;;10.90;1.60;;;6.20;94.70;;;;;;4987747;28;20049;-55
2021/01/12 08:05:34;;;;;;;7.75;1.50;;;6.20;94.60;;;;;;4987537;28;20042;-56
2021/01/12 08:08:10;;;;;;;6.00;1.35;;;6.20;94.70;;;;;;4987248;28;20055;-55
2021/01/12 08:10:38;;;;;;;8.38;1.25;;;6.20;94.60;;;;;;4984940;28;20069;-54
2021/01/12 08:13:14;;;;;;;9.45;1.55;;;6.20;94.70;;;;;;4988747;28;20121;-55
2021/01/12 08:15:43;;;;;;;7.35;1.48;;;6.20;94.70;;;;;;4991701;28;20061;-55
2021/01/12 08:18:16;;;;;;;10.18;1.65;;;6.20;94.70;;;;;;4989998;28;20045;-55
2021/01/12 08:20:43;;;;;;;10.90;2.15;;;6.20;94.70;;;;;;4988234;28;20042;-55
2021/01/12 08:23:16;;;;;;;8.55;2.20;;;6.20;94.60;;;;;;4991920;28;20042;-55
2021/01/12 08:25:42;;;;;;;13.45;2.40;;;6.20;94.70;;;;;;4984329;28;20142;-55
2021/01/12 08:28:09;;;;;;;11.48;2.08;;;6.30;94.60;;;;;;4971741;28;20132;-55
2021/01/12 08:30:36;;;;;;;14.85;1.85;;;6.20;94.50;;;;;;4981156;28;20157;-55
2021/01/12 08:33:13;;;;;;;13.63;2.72;;;6.20;94.60;;;;;;4987813;28;20525;-55
2021/01/12 08:35:42;;;;;;;10.52;2.08;;;6.20;94.40;;;;;;4980611;28;20503;-55
2021/01/12 08:38:08;;;;;;;8.93;1.98;;;6.10;94.40;;;;;;4973582;28;20090;-56
2021/01/12 08:40:34;;;;;;;6.70;2.03;;;6.10;94.40;;;;;;4988458;28;20069;-55
2021/01/12 08:43:01;;;;;;;8.52;1.90;;;6.20;94.30;;;;;;4986812;28;20038;-55
2021/01/12 08:45:33;;;;;;;8.52;1.98;;;6.10;94.30;;;;;;4987878;28;20137;-54
2021/01/12 08:48:14;;;;;;;11.60;2.45;;;6.10;94.30;;;;;;4985976;28;20061;-55
2021/01/12 08:50:41;;;;;;;10.98;2.00;;;6.10;94.30;;;;;;4979413;28;20503;-55
2021/01/12 08:53:08;;;;;;;13.55;2.25;;;6.10;94.40;;;;;;4982137;28;20098;-55
2021/01/12 08:55:34;;;;;;;4.85;1.40;;;6.10;94.40;;;;;;4977118;28;20041;-55
2021/01/12 08:58:05;;;;;;;8.85;1.75;;;6.10;94.40;;;;;;4985705;28;20465;-55
2021/01/12 09:00:31;;;;;;;7.75;1.45;;;6.10;94.50;;;;;;4988126;28;20837;-55
2021/01/12 09:02:58;;;;;;;6.93;1.63;;;6.10;94.40;;;;;;4985620;28;20456;-54
2021/01/12 09:05:25;;;;;;;8.15;1.70;;;6.20;94.30;;;;;;4986811;28;20072;-55
2021/01/12 09:08:06;;;;;;;8.60;2.25;;;6.20;94.20;;;;;;4985166;28;20450;-55
2021/01/12 09:10:33;;;;;;;6.80;1.50;;;6.10;94.30;;;;;;4979449;28;20097;-55
2021/01/12 09:13:01;;;;;;;7.78;1.95;;;6.10;94.40;;;;;;4970059;28;20415;-55
2021/01/12 09:15:33;;;;;;;9.55;2.00;;;6.10;94.40;;;;;;4980811;28;20049;-56
2021/01/12 09:18:04;;;;;;;10.00;1.73;;;6.10;94.30;;;;;;4975928;28;20050;-54
2021/01/12 09:20:29;;;;;;;9.50;2.00;;;6.10;94.40;;;;;;4958573;28;780756;-55
2021/01/12 09:23:03;;;;;;;9.60;2.30;;;6.20;94.50;;;;;;4970442;28;20030;-54
2021/01/12 09:25:29;;;;;;;12.82;1.90;;;6.20;94.40;;;;;;4969811;28;20038;-55
2021/01/12 09:28:09;;;;;;;6.63;2.17;;;6.20;94.20;;;;;;4980515;28;20057;-55
2021/01/12 09:30:34;;;;;;;6.45;2.03;;;6.20;94.20;;;;;;4977355;28;20078;-52
2021/01/12 09:33:00;;;;;;;7.60;1.88;;;6.20;94.30;;;;;;4979865;28;20081;-54
2021/01/12 09:35:26;;;;;;;6.82;1.80;;;6.10;94.00;;;;;;4982593;28;20086;-54
2021/01/12 09:38:09;;;;;;;8.60;1.60;;;6.10;94.00;;;;;;4979305;28;20042;-55
2021/01/12 09:40:35;;;;;;;8.98;1.25;;;6.10;93.80;;;;;;4976690;28;20084;-55
2021/01/12 09:43:00;;;;;;;5.57;1.10;;;6.10;93.50;;;;;;4982187;28;20117;-55
2021/01/12 09:45:27;;;;;;;3.30;1.23;;;6.00;93.40;;;;;;4975535;28;20062;-55
2021/01/12 09:47:52;;;;;;;4.95;1.40;;;5.90;93.40;;;;;;4987139;28;20104;-55
2021/01/12 09:50:18;;;;;;;7.25;1.80;;;5.90;93.20;;;;;;4982086;28;20497;-53
2021/01/12 09:52:44;;;;;;;4.38;1.42;;;5.80;93.40;;;;;;4984874;28;20065;-51
2021/01/12 09:55:10;;;;;;;4.22;1.15;;;5.80;93.60;;;;;;4981500;28;20391;-54
2021/01/12 09:57:36;;;;;;;4.13;1.00;;;5.80;93.20;;;;;;4971877;28;20047;-53
2021/01/12 10:00:08;;;;;;;4.53;1.40;;;5.80;93.10;;;;;;4977776;28;20048;-53
2021/01/12 10:02:34;;;;;;;4.93;1.50;;;5.70;93.10;;;;;;4979212;28;20072;-55
2021/01/12 10:05:00;;;;;;;5.40;1.23;;;5.70;93.40;;;;;;4977021;28;20105;-54
2021/01/12 10:07:26;;;;;;;3.05;1.20;;;5.80;93.50;;;;;;4971985;28;20512;-55
2021/01/12 10:09:51;;;;;;;2.55;0.85;;;5.80;93.50;;;;;;4983324;28;20046;-52
2021/01/12 10:12:17;;;;;;;4.82;1.50;;;5.80;93.40;;;;;;4974653;28;20069;-51
2021/01/12 10:14:43;;;;;;;3.45;0.95;;;5.80;93.50;;;;;;4978386;28;20039;-54
2021/01/12 10:17:09;;;;;;;5.45;1.80;;;5.80;93.50;;;;;;4981880;28;20062;-51
2021/01/12 10:19:55;;;;;;;5.15;0.80;;;5.80;93.40;;;;;;4965007;28;20054;-54
2021/01/12 10:22:21;;;;;;;7.00;1.10;;;5.80;93.40;;;;;;4967232;28;20038;-54
2021/01/12 10:24:46;;;;;;;7.30;1.50;;;5.70;93.30;;;;;;4986977;28;20745;-55
2021/01/12 10:27:12;;;;;;;5.45;0.82;;;5.70;93.40;;;;;;4975210;28;20538;-51
2021/01/12 10:29:38;;;;;;;5.00;0.95;;;5.70;93.20;;;;;;4993860;28;20050;-53
2021/01/12 10:32:04;;;;;;;8.93;3.63;;;5.70;93.30;;;;;;4978241;28;20061;-52
2021/01/12 10:34:29;;;;;;;5.35;1.42;;;5.80;93.30;;;;;;4980887;28;20422;-52
2021/01/12 10:36:55;;;;;;;3.88;0.98;;;5.80;93.20;;;;;;4979571;28;20525;-52
2021/01/12 10:39:20;;;;;;;6.75;1.10;;;5.80;93.30;;;;;;4984068;28;20053;-55
2021/01/12 10:41:46;;;;;;;4.97;1.25;;;5.80;93.20;;;;;;4973673;28;20033;-50
2021/01/12 10:44:12;;;;;;;6.40;1.15;;;5.90;92.80;;;;;;4989609;28;20046;-52
2021/01/12 10:46:38;;;;;;;6.45;1.27;;;5.90;92.70;;;;;;4986928;28;20041;-50
2021/01/12 10:49:04;;;;;;;9.82;1.35;;;5.90;92.70;;;;;;4979713;28;20050;-54
2021/01/12 10:51:30;;;;;;;3.08;0.90;;;6.00;92.80;;;;;;4975952;28;20404;-50
2021/01/12 10:53:56;;;;;;;8.38;1.48;;;5.90;92.70;;;;;;4967607;28;20458;-54
2021/01/12 10:56:22;;;;;;;4.63;1.33;;;5.90;92.70;;;;;;4981396;28;20049;-56
2021/01/12 10:58:47;;;;;;;8.68;1.42;;;6.00;92.50;;;;;;4959061;28;20885;-54
2021/01/12 11:01:14;;;;;;;6.10;0.90;;;6.00;91.70;;;;;;4980931;28;20038;-53
2021/01/12 11:03:40;;;;;;;7.40;1.20;;;6.00;91.90;;;;;;4982554;28;20062;-49
2021/01/12 11:06:06;;;;;;;6.90;1.02;;;6.00;91.70;;;;;;4951256;28;20145;-53
2021/01/12 11:08:32;;;;;;;7.90;1.63;;;6.00;91.60;;;;;;4986685;28;20480;-53
2021/01/12 11:10:58;;;;;;;8.15;1.55;;;6.10;91.20;;;;;;4973324;28;20053;-51
2021/01/12 11:13:26;;;;;;;11.95;1.55;;;6.10;91.00;;;;;;4970995;28;20106;-54
2021/01/12 11:15:56;;;;;;;12.57;1.90;;;6.10;90.80;;;;;;4982853;28;20049;-57
2021/01/12 11:18:22;;;;;;;5.55;1.38;;;6.10;90.30;;;;;;4977555;28;20034;-57
2021/01/12 11:20:47;;;;;;;8.18;1.67;;;6.10;90.20;;;;;;4985606;28;20125;-53
2021/01/12 11:23:13;;;;;;;5.22;0.98;;;6.20;89.00;;;;;;4970721;28;20050;-57
2021/01/12 11:25:39;;;;;;;10.57;1.40;;;6.20;88.40;;;;;;4967925;28;20050;-51
2021/01/12 11:28:05;;;;;;;4.05;1.17;;;6.20;88.30;;;;;;4969702;28;20038;-57
2021/01/12 11:30:31;;;;;;;4.65;0.95;;;6.20;86.90;;;;;;4980188;28;20562;-55
2021/01/12 11:32:59;;;;;;;7.25;1.17;;;6.20;86.50;;;;;;4985884;28;20050;-54
2021/01/12 11:35:25;;;;;;;9.00;1.20;;;6.20;87.40;;;;;;4986088;28;20450;-54
2021/01/12 11:37:51;;;;;;;6.88;1.50;;;6.20;87.40;;;;;;4985490;28;20038;-50
2021/01/12 11:40:17;;;;;;;8.18;1.50;;;6.20;85.90;;;;;;4967327;28;20038;-54
2021/01/12 11:42:43;;;;;;;9.38;1.35;;;6.20;86.00;;;;;;4982361;28;20487;-53
2021/01/12 11:45:10;;;;;;;6.57;1.23;;;6.30;85.40;;;;;;4986224;28;20072;-57
2021/01/12 11:47:35;;;;;;;4.70;0.90;;;6.30;84.60;;;;;;4985001;28;20696;-55
2021/01/12 11:50:07;;;;;;;9.93;1.40;;;6.30;85.50;;;;;;4983016;28;20051;-50
2021/01/12 11:52:33;;;;;;;9.63;1.88;;;6.30;84.40;;;;;;4979509;28;20411;-50
2021/01/12 11:54:59;;;;;;;11.68;1.77;;;6.30;84.00;;;;;;4985070;28;20058;-51
2021/01/12 11:57:25;;;;;;;10.55;1.58;;;6.30;84.60;;;;;;4984916;28;20120;-58
2021/01/12 11:59:50;;;;;;;7.95;1.13;;;6.40;83.20;;;;;;4982423;28;20046;-57
2021/01/12 12:02:16;;;;;;;8.75;1.25;;;6.40;82.30;;;;;;4983082;28;20387;-53
2021/01/12 12:04:42;;;;;;;8.02;1.65;;;6.40;82.10;;;;;;4948694;28;20081;-54
2021/01/12 12:07:07;;;;;;;11.02;1.75;;;6.50;82.20;;;;;;4962664;28;20414;-55
2021/01/12 12:09:34;;;;;;;7.82;1.40;;;6.50;82.90;;;;;;4976680;28;20049;-53
2021/01/12 12:12:03;;;;;;;10.18;1.15;;;6.60;82.70;;;;;;4980503;28;20151;-53
2021/01/12 12:14:29;;;;;;;11.32;1.73;;;6.60;82.20;;;;;;4968769;28;20129;-56
2021/01/12 12:16:56;;;;;;;11.13;1.30;;;6.70;81.90;;;;;;4977569;28;20121;-54
2021/01/12 12:19:23;;;;;;;9.18;1.30;;;6.70;82.20;;;;;;4981214;28;20054;-53
2021/01/12 12:21:54;;;;;;;9.07;1.40;;;6.70;81.50;;;;;;4975113;28;20052;-50
2021/01/12 12:24:25;;;;;;;13.25;1.55;;;6.70;80.50;;;;;;4984739;28;20097;-51
2021/01/12 12:26:52;;;;;;;9.65;1.30;;;6.70;80.10;;;;;;4973168;28;20069;-55
2021/01/12 12:29:18;;;;;;;9.73;1.17;;;6.70;81.30;;;;;;4983009;28;20038;-53
2021/01/12 12:31:45;;;;;;;14.02;1.42;;;6.60;80.20;;;;;;4980976;28;20054;-55
2021/01/12 12:34:11;;;;;;;12.10;1.77;;;6.60;80.60;;;;;;4977940;28;20125;-51
2021/01/12 12:36:37;;;;;;;6.65;1.30;;;6.60;80.80;;;;;;4972693;28;20105;-55
2021/01/12 12:39:03;;;;;;;7.57;1.20;;;6.60;81.70;;;;;;4967617;28;20056;-53
2021/01/12 12:41:32;;;;;;;9.90;1.55;;;6.60;81.50;;;;;;4968611;28;20034;-55
2021/01/12 12:43:58;;;;;;;10.55;1.98;;;6.70;81.60;;;;;;4983109;28;20269;-54
2021/01/12 12:46:24;;;;;;;9.60;2.03;;;6.70;80.40;;;;;;4977546;28;20043;-51
2021/01/12 12:48:50;;;;;;;12.43;1.33;;;6.80;80.90;;;;;;4977208;28;20110;-52
2021/01/12 12:51:19;;;;;;;10.23;1.63;;;6.90;80.00;;;;;;4983382;28;20042;-56
2021/01/12 12:53:46;;;;;;;10.80;1.88;;;7.00;80.00;;;;;;4987465;28;20042;-50